createdAt,value
2023-07-17T00:01:00.005Z,16.02
2023-07-17T00:03:27.469Z,16.02
2023-07-17T00:05:57.703Z,15.96
2023-07-17T00:08:25.120Z,15.93
2023-07-17T00:10:52.644Z,15.91
2023-07-17T00:13:20.293Z,15.89
2023-07-17T00:15:47.619Z,15.88
2023-07-17T00:18:15.880Z,15.85
2023-07-17T00:20:43.460Z,15.83
2023-07-17T00:23:12.781Z,15.85
2023-07-17T00:25:40.246Z,15.89
2023-07-17T00:28:07.724Z,15.90
2023-07-17T00:30:35.235Z,15.90
2023-07-17T00:33:02.701Z,15.90
2023-07-17T00:35:30.488Z,15.90
2023-07-17T00:37:57.765Z,15.91
2023-07-17T00:40:26.538Z,15.90
2023-07-17T00:42:58.136Z,15.92
2023-07-17T00:45:25.693Z,15.93
2023-07-17T00:47:53.348Z,15.95
2023-07-17T00:50:21.005Z,15.96
2023-07-17T00:52:48.428Z,15.96
2023-07-17T00:55:16.758Z,15.94
2023-07-17T00:57:45.881Z,15.94
2023-07-17T01:00:14.619Z,15.94
2023-07-17T01:02:45.166Z,15.95
2023-07-17T01:05:12.565Z,15.96
2023-07-17T01:07:41.056Z,15.95
2023-07-17T01:10:09.655Z,15.94
2023-07-17T01:12:38.061Z,15.92
2023-07-17T01:15:11.216Z,15.86
2023-07-17T01:17:38.938Z,15.87
2023-07-17T01:20:10.909Z,15.90
2023-07-17T01:22:41.465Z,15.91
2023-07-17T01:25:10.811Z,15.94
2023-07-17T01:27:39.874Z,15.94
2023-07-17T01:30:08.694Z,15.95
2023-07-17T01:32:36.139Z,15.96
2023-07-17T01:35:07.054Z,15.95
2023-07-17T01:37:34.514Z,15.97
2023-07-17T01:40:04.492Z,15.96
2023-07-17T01:42:33.472Z,15.99
2023-07-17T01:45:01.269Z,15.98
2023-07-17T01:47:32.870Z,15.97
2023-07-17T01:50:00.495Z,15.96
2023-07-17T01:52:27.948Z,15.95
2023-07-17T01:54:55.340Z,15.97
2023-07-17T01:57:24.735Z,15.99
2023-07-17T01:59:53.424Z,16.00
2023-07-17T02:02:21.141Z,15.99
2023-07-17T02:04:48.936Z,16.00
2023-07-17T02:07:16.344Z,16.00
2023-07-17T02:09:43.797Z,16.02
2023-07-17T02:12:12.584Z,16.03
2023-07-17T02:14:40.304Z,16.04
2023-07-17T02:17:08.987Z,16.03
2023-07-17T02:19:36.481Z,16.06
2023-07-17T02:22:03.996Z,16.08
2023-07-17T02:24:31.535Z,16.10
2023-07-17T02:27:00.215Z,16.12
2023-07-17T02:29:27.518Z,16.14
2023-07-17T02:31:55.078Z,16.13
2023-07-17T02:34:24.061Z,16.16
2023-07-17T02:36:53.565Z,16.17
2023-07-17T02:39:22.207Z,16.21
2023-07-17T02:41:49.678Z,16.24
2023-07-17T02:44:17.066Z,16.27
2023-07-17T02:46:44.316Z,16.31
2023-07-17T02:49:15.187Z,16.33
2023-07-17T02:51:44.155Z,16.40
2023-07-17T02:54:11.532Z,16.47
2023-07-17T02:56:38.834Z,16.52
2023-07-17T02:59:06.459Z,16.57
2023-07-17T03:01:33.943Z,16.58
2023-07-17T03:04:02.799Z,16.69
2023-07-17T03:06:30.462Z,16.75
2023-07-17T03:08:59.107Z,16.83
2023-07-17T03:11:26.490Z,16.86
2023-07-17T03:13:53.953Z,16.97
2023-07-17T03:16:21.877Z,17.05
2023-07-17T03:18:49.532Z,17.12
2023-07-17T03:21:17.377Z,17.18
2023-07-17T03:23:44.961Z,17.21
2023-07-17T03:26:13.712Z,17.24
2023-07-17T03:28:41.064Z,17.22
2023-07-17T03:31:10.781Z,17.25
2023-07-17T03:33:40.601Z,17.31
2023-07-17T03:36:08.144Z,17.34
2023-07-17T03:38:35.671Z,17.38
2023-07-17T03:41:04.181Z,17.46
2023-07-17T03:43:32.935Z,17.52
2023-07-17T03:46:00.415Z,17.60
2023-07-17T03:48:28.344Z,17.69
2023-07-17T03:51:00.860Z,17.79
2023-07-17T03:53:30.870Z,17.88
2023-07-17T03:55:58.238Z,18.01
2023-07-17T03:58:25.532Z,18.12
2023-07-17T04:00:55.130Z,18.26
2023-07-17T04:03:24.181Z,18.39
2023-07-17T04:05:51.858Z,18.55
2023-07-17T04:08:19.142Z,18.72
2023-07-17T04:10:46.632Z,18.86
2023-07-17T04:13:14.786Z,19.03
2023-07-17T04:15:43.141Z,19.19
2023-07-17T04:18:15.728Z,19.35
2023-07-17T04:20:43.735Z,19.48
2023-07-17T04:23:13.137Z,19.64
2023-07-17T04:25:45.924Z,19.75
2023-07-17T04:28:13.315Z,19.81
2023-07-17T04:30:42.227Z,19.84
2023-07-17T04:33:12.196Z,19.96
2023-07-17T04:35:41.203Z,20.10
2023-07-17T04:38:09.107Z,20.27
2023-07-17T04:40:36.477Z,20.44
2023-07-17T04:43:04.570Z,20.60
2023-07-17T04:45:34.123Z,20.72
2023-07-17T04:48:07.183Z,20.86
2023-07-17T04:50:34.767Z,20.99
2023-07-17T04:53:03.420Z,21.12
2023-07-17T04:55:30.958Z,21.25
2023-07-17T04:57:58.797Z,21.39
2023-07-17T05:00:28.563Z,21.51
2023-07-17T05:02:58.224Z,21.64
2023-07-17T05:05:27.590Z,21.77
2023-07-17T05:07:55.781Z,21.88
2023-07-17T05:10:25.412Z,21.98
2023-07-17T05:12:54.360Z,22.10
2023-07-17T05:15:22.269Z,22.17
2023-07-17T05:17:50.092Z,22.18
2023-07-17T05:20:17.756Z,22.16
2023-07-17T05:22:45.313Z,22.13
2023-07-17T05:25:14.259Z,22.04
2023-07-17T05:27:43.445Z,21.93
2023-07-17T05:30:12.541Z,21.89
2023-07-17T05:32:39.992Z,21.89
2023-07-17T05:35:08.619Z,21.94
2023-07-17T05:37:36.823Z,21.98
2023-07-17T05:40:06.912Z,22.07
2023-07-17T05:42:34.321Z,22.23
2023-07-17T05:45:04.976Z,22.40
2023-07-17T05:47:32.888Z,22.55
2023-07-17T05:50:00.560Z,22.70
2023-07-17T05:52:27.958Z,22.80
2023-07-17T05:54:56.495Z,22.86
2023-07-17T05:57:24.415Z,22.95
2023-07-17T05:59:52.077Z,23.07
2023-07-17T06:02:21.037Z,23.18
2023-07-17T06:04:48.554Z,23.29
2023-07-17T06:07:15.988Z,23.41
2023-07-17T06:09:43.287Z,23.49
2023-07-17T06:12:10.583Z,23.58
2023-07-17T06:14:38.102Z,23.64
2023-07-17T06:17:06.128Z,23.69
2023-07-17T06:19:34.841Z,23.76
2023-07-17T06:22:02.171Z,23.86
2023-07-17T06:24:29.601Z,24.06
2023-07-17T06:26:57.468Z,24.24
2023-07-17T06:29:25.002Z,24.41
2023-07-17T06:31:52.350Z,24.75
2023-07-17T06:34:22.481Z,25.14
2023-07-17T06:36:51.845Z,25.61
2023-07-17T06:39:20.788Z,26.02
2023-07-17T06:41:48.614Z,26.37
2023-07-17T06:44:17.219Z,26.72
2023-07-17T06:46:44.697Z,27.04
2023-07-17T06:49:12.374Z,27.30
2023-07-17T06:51:39.739Z,27.57
2023-07-17T06:54:08.495Z,27.80
2023-07-17T06:56:35.974Z,28.12
2023-07-17T06:59:03.288Z,28.43
2023-07-17T07:01:30.623Z,28.54
2023-07-17T07:03:58.185Z,28.70
2023-07-17T07:06:25.755Z,28.79
2023-07-17T07:08:53.075Z,28.87
2023-07-17T07:11:22.016Z,28.96
2023-07-17T07:13:49.282Z,29.06
2023-07-17T07:16:17.322Z,29.21
2023-07-17T07:18:45.450Z,29.23
2023-07-17T07:21:12.802Z,29.30
2023-07-17T07:23:40.268Z,29.31
2023-07-17T07:26:07.582Z,29.31
2023-07-17T07:28:36.295Z,29.40
2023-07-17T07:31:03.832Z,29.38
2023-07-17T07:33:31.308Z,29.32
2023-07-17T07:35:58.721Z,29.23
2023-07-17T07:38:26.048Z,29.10
2023-07-17T07:40:53.446Z,29.05
2023-07-17T07:43:20.706Z,29.01
2023-07-17T07:45:49.938Z,29.06
2023-07-17T07:48:17.595Z,29.07
2023-07-17T07:50:45.262Z,29.06
2023-07-17T07:53:12.642Z,29.09
2023-07-17T07:55:40.000Z,29.13
2023-07-17T07:58:07.311Z,29.15
2023-07-17T08:00:34.693Z,29.09
2023-07-17T08:03:03.511Z,28.99
2023-07-17T08:05:30.888Z,28.75
2023-07-17T08:07:58.245Z,28.73
2023-07-17T08:10:25.714Z,28.60
2023-07-17T08:12:53.000Z,28.60
2023-07-17T08:15:20.444Z,28.74
2023-07-17T08:17:47.816Z,28.87
2023-07-17T08:20:16.748Z,28.82
2023-07-17T08:22:44.307Z,28.70
2023-07-17T08:25:11.657Z,28.67
2023-07-17T08:27:38.948Z,28.81
2023-07-17T08:30:08.350Z,28.85
2023-07-17T08:32:35.990Z,28.67
2023-07-17T08:35:04.528Z,28.51
2023-07-17T08:37:33.419Z,28.38
2023-07-17T08:40:01.062Z,28.30
2023-07-17T08:42:31.000Z,28.30
2023-07-17T08:44:59.373Z,28.29
2023-07-17T08:47:27.842Z,28.32
2023-07-17T08:49:56.757Z,28.40
2023-07-17T08:52:24.152Z,28.38
2023-07-17T08:54:53.219Z,28.51
2023-07-17T08:57:21.407Z,28.50
2023-07-17T08:59:48.772Z,28.47
2023-07-17T09:02:16.238Z,28.60
2023-07-17T09:04:43.662Z,28.72
2023-07-17T09:07:11.313Z,28.71
2023-07-17T09:09:38.795Z,28.66
2023-07-17T09:12:12.741Z,28.60
2023-07-17T09:14:40.908Z,28.56
2023-07-17T09:17:11.382Z,28.69
2023-07-17T09:19:39.557Z,28.86
2023-07-17T09:22:08.700Z,29.04
2023-07-17T09:24:37.971Z,29.23
2023-07-17T09:27:08.037Z,29.40
2023-07-17T09:29:42.167Z,29.46
2023-07-17T09:32:17.264Z,29.49
2023-07-17T09:34:44.576Z,29.43
2023-07-17T09:37:11.970Z,29.39
2023-07-17T09:39:39.856Z,29.54
2023-07-17T09:42:23.515Z,29.66
2023-07-17T09:44:53.855Z,29.53
2023-07-17T09:47:21.928Z,29.45
2023-07-17T09:49:51.596Z,29.26
2023-07-17T09:52:19.614Z,29.10
2023-07-17T09:54:50.300Z,28.84
2023-07-17T09:57:26.991Z,28.65
2023-07-17T09:59:58.924Z,28.75
2023-07-17T10:02:31.578Z,28.91
2023-07-17T10:05:01.364Z,28.79
2023-07-17T10:07:32.015Z,28.80
2023-07-17T10:10:00.349Z,28.84
2023-07-17T10:12:28.509Z,28.90
2023-07-17T10:14:59.093Z,28.84
2023-07-17T10:17:31.079Z,28.87
2023-07-17T10:19:59.949Z,29.11
2023-07-17T10:22:35.121Z,29.19
2023-07-17T10:25:24.133Z,29.26
2023-07-17T10:27:56.314Z,29.31
2023-07-17T10:30:27.895Z,29.49
2023-07-17T10:33:08.698Z,29.67
2023-07-17T10:35:50.436Z,29.79
2023-07-17T10:38:19.940Z,29.99
2023-07-17T10:40:47.622Z,30.17
2023-07-17T10:43:17.629Z,30.07
2023-07-17T10:45:48.717Z,29.84
2023-07-17T10:48:19.040Z,29.74
2023-07-17T10:50:51.051Z,29.92
2023-07-17T10:53:18.367Z,30.08
2023-07-17T10:55:47.598Z,30.21
2023-07-17T10:58:15.714Z,30.29
2023-07-17T11:00:43.802Z,30.33
2023-07-17T11:03:15.191Z,30.34
2023-07-17T11:05:43.603Z,30.44
2023-07-17T11:08:13.368Z,30.57
2023-07-17T11:10:42.933Z,30.51
2023-07-17T11:13:11.526Z,30.34
2023-07-17T11:15:39.366Z,30.28
2023-07-17T11:18:09.084Z,30.34
2023-07-17T11:20:38.559Z,30.33
2023-07-17T11:23:10.842Z,30.23
2023-07-17T11:25:38.890Z,30.32
2023-07-17T11:28:06.501Z,30.48
2023-07-17T11:30:33.975Z,30.49
2023-07-17T11:33:02.972Z,30.52
2023-07-17T11:35:45.600Z,30.66
2023-07-17T11:38:15.590Z,30.50
2023-07-17T11:40:53.642Z,30.65
2023-07-17T11:43:26.724Z,30.78
2023-07-17T11:46:02.756Z,30.81
2023-07-17T11:48:31.476Z,30.75
2023-07-17T11:51:03.680Z,30.83
2023-07-17T11:53:31.388Z,31.12
2023-07-17T11:56:02.113Z,31.23
2023-07-17T11:58:31.602Z,31.41
2023-07-17T12:00:59.299Z,31.66
2023-07-17T12:03:26.658Z,31.89
2023-07-17T12:05:54.382Z,32.11
2023-07-17T12:08:23.426Z,32.29
2023-07-17T12:10:50.811Z,32.33
2023-07-17T12:13:18.522Z,32.50
2023-07-17T12:15:45.882Z,32.62
2023-07-17T12:18:13.224Z,32.75
2023-07-17T12:20:40.487Z,32.76
2023-07-17T12:23:08.057Z,32.52
2023-07-17T12:25:40.967Z,32.13
2023-07-17T12:28:08.325Z,31.96
2023-07-17T12:30:35.691Z,32.14
2023-07-17T12:33:03.249Z,32.47
2023-07-17T12:35:30.908Z,32.86
2023-07-17T12:37:58.435Z,33.19
2023-07-17T12:40:26.563Z,33.50
2023-07-17T12:42:55.576Z,33.74
2023-07-17T12:45:22.811Z,33.85
2023-07-17T12:47:50.533Z,33.91
2023-07-17T12:50:18.195Z,33.97
2023-07-17T12:52:45.690Z,33.81
2023-07-17T12:55:13.652Z,33.17
2023-07-17T12:57:41.909Z,32.61
2023-07-17T13:00:13.718Z,32.35
2023-07-17T13:02:42.357Z,31.99
2023-07-17T13:05:13.976Z,31.79
2023-07-17T13:07:41.508Z,31.40
2023-07-17T13:10:09.972Z,31.45
2023-07-17T13:12:47.567Z,31.39
2023-07-17T13:15:19.638Z,31.13
2023-07-17T13:17:47.198Z,31.22
2023-07-17T13:20:15.083Z,31.30
2023-07-17T13:22:42.864Z,31.78
2023-07-17T13:25:10.757Z,32.38
2023-07-17T13:27:38.201Z,32.87
2023-07-17T13:30:06.904Z,33.27
2023-07-17T13:32:35.812Z,33.56
2023-07-17T13:35:03.241Z,33.22
2023-07-17T13:37:31.487Z,33.23
2023-07-17T13:39:59.003Z,33.43
2023-07-17T13:42:27.510Z,33.76
2023-07-17T13:45:00.020Z,34.09
2023-07-17T13:47:27.986Z,34.27
2023-07-17T13:49:57.027Z,34.36
2023-07-17T13:52:24.936Z,34.44
2023-07-17T13:54:52.167Z,34.41
2023-07-17T13:57:19.996Z,34.33
2023-07-17T13:59:53.083Z,34.35
2023-07-17T14:02:21.251Z,34.32
2023-07-17T14:04:48.854Z,34.24
2023-07-17T14:07:17.468Z,34.33
2023-07-17T14:09:44.887Z,34.44
2023-07-17T14:12:12.480Z,34.63
2023-07-17T14:14:39.742Z,34.72
2023-07-17T14:17:07.108Z,34.82
2023-07-17T14:19:34.610Z,34.86
2023-07-17T14:22:01.929Z,34.79
2023-07-17T14:24:30.763Z,34.73
2023-07-17T14:26:58.109Z,34.79
2023-07-17T14:29:25.582Z,34.69
2023-07-17T14:31:53.050Z,34.67
2023-07-17T14:34:28.609Z,34.67
2023-07-17T14:36:55.915Z,34.65
2023-07-17T14:39:23.220Z,34.61
2023-07-17T14:41:51.898Z,34.63
2023-07-17T14:44:19.190Z,34.55
2023-07-17T14:46:46.583Z,34.53
2023-07-17T14:49:14.114Z,34.39
2023-07-17T14:51:41.659Z,34.36
2023-07-17T14:54:09.048Z,34.45
2023-07-17T14:56:36.466Z,34.43
2023-07-17T14:59:05.290Z,34.39
2023-07-17T15:01:32.615Z,34.07
2023-07-17T15:04:00.027Z,33.70
2023-07-17T15:06:27.361Z,33.30
2023-07-17T15:08:54.912Z,33.03
2023-07-17T15:11:25.984Z,32.74
2023-07-17T15:13:54.338Z,32.45
2023-07-17T15:16:23.277Z,32.20
2023-07-17T15:18:50.747Z,32.00
2023-07-17T15:21:18.137Z,31.78
2023-07-17T15:23:45.538Z,31.44
2023-07-17T15:26:13.081Z,30.96
2023-07-17T15:28:40.409Z,30.63
2023-07-17T15:31:13.141Z,30.39
2023-07-17T15:33:42.135Z,30.36
2023-07-17T15:36:09.610Z,30.34
2023-07-17T15:38:36.921Z,30.33
2023-07-17T15:41:04.636Z,30.21
2023-07-17T15:43:33.049Z,30.03
2023-07-17T15:46:00.356Z,29.81
2023-07-17T15:48:27.731Z,29.48
2023-07-17T15:50:56.470Z,29.18
2023-07-17T15:53:25.472Z,28.99
2023-07-17T15:55:53.091Z,28.93
2023-07-17T15:58:20.340Z,28.89
2023-07-17T16:00:47.853Z,28.86
2023-07-17T16:03:15.209Z,28.76
2023-07-17T16:05:42.758Z,28.71
2023-07-17T16:08:11.809Z,28.64
2023-07-17T16:10:39.400Z,28.54
2023-07-17T16:13:06.764Z,28.44
2023-07-17T16:15:34.117Z,28.35
2023-07-17T16:18:01.640Z,28.20
2023-07-17T16:20:29.183Z,28.08
2023-07-17T16:22:56.853Z,27.98
2023-07-17T16:25:25.954Z,27.85
2023-07-17T16:27:53.211Z,27.74
2023-07-17T16:30:21.722Z,27.64
2023-07-17T16:32:49.249Z,27.57
2023-07-17T16:35:16.604Z,27.50
2023-07-17T16:37:43.871Z,27.41
2023-07-17T16:40:12.201Z,27.34
2023-07-17T16:42:42.016Z,27.28
2023-07-17T16:45:10.206Z,27.25
2023-07-17T16:47:37.983Z,27.21
2023-07-17T16:50:06.466Z,27.13
2023-07-17T16:52:34.133Z,27.11
2023-07-17T16:55:01.829Z,27.07
2023-07-17T16:57:33.129Z,27.11
2023-07-17T17:00:04.611Z,27.06
2023-07-17T17:02:35.578Z,27.04
2023-07-17T17:05:06.198Z,27.00
2023-07-17T17:07:33.644Z,26.94
2023-07-17T17:10:01.013Z,26.87
2023-07-17T17:12:29.039Z,26.81
2023-07-17T17:14:56.446Z,26.73
2023-07-17T17:17:25.442Z,26.68
2023-07-17T17:19:53.325Z,26.57
2023-07-17T17:22:21.134Z,26.50
2023-07-17T17:24:48.476Z,26.46
2023-07-17T17:27:15.737Z,26.42
2023-07-17T17:29:43.095Z,26.40
2023-07-17T17:32:10.436Z,26.36
2023-07-17T17:34:39.042Z,26.28
2023-07-17T17:37:06.725Z,26.23
2023-07-17T17:39:34.080Z,26.17
2023-07-17T17:42:01.478Z,26.10
2023-07-17T17:44:28.935Z,25.95
2023-07-17T17:46:56.433Z,25.86
2023-07-17T17:49:23.941Z,25.76
2023-07-17T17:51:52.723Z,25.65
2023-07-17T17:54:20.036Z,25.55
2023-07-17T17:56:47.277Z,25.45
2023-07-17T17:59:14.830Z,25.39
2023-07-17T18:01:42.233Z,25.30
2023-07-17T18:04:09.884Z,25.28
2023-07-17T18:06:37.486Z,25.22
2023-07-17T18:09:06.170Z,25.15
2023-07-17T18:11:37.255Z,25.08
2023-07-17T18:14:10.770Z,24.97
2023-07-17T18:16:39.676Z,24.89
2023-07-17T18:19:08.605Z,24.79
2023-07-17T18:21:36.384Z,24.67
2023-07-17T18:24:07.290Z,24.58
2023-07-17T18:26:34.662Z,24.44
2023-07-17T18:29:02.090Z,24.30
2023-07-17T18:31:29.647Z,24.16
2023-07-17T18:33:57.286Z,24.05
2023-07-17T18:36:25.383Z,23.96
2023-07-17T18:38:52.715Z,23.87
2023-07-17T18:41:21.861Z,23.77
2023-07-17T18:43:52.496Z,23.69
2023-07-17T18:46:20.922Z,23.64
2023-07-17T18:48:49.923Z,23.61
2023-07-17T18:51:17.993Z,23.58
2023-07-17T18:53:45.503Z,23.54
2023-07-17T18:56:13.019Z,23.47
2023-07-17T18:58:42.045Z,23.37
2023-07-17T19:01:09.464Z,23.31
2023-07-17T19:03:37.051Z,23.22
2023-07-17T19:06:05.150Z,23.17
2023-07-17T19:08:32.541Z,23.12
2023-07-17T19:11:02.377Z,23.04
2023-07-17T19:13:29.818Z,22.94
2023-07-17T19:15:59.095Z,22.86
2023-07-17T19:18:26.882Z,22.74
2023-07-17T19:20:54.601Z,22.63
2023-07-17T19:23:22.649Z,22.57
2023-07-17T19:25:49.980Z,22.55
2023-07-17T19:28:17.533Z,22.55
2023-07-17T19:30:47.392Z,22.49
2023-07-17T19:33:16.640Z,22.40
2023-07-17T19:35:44.415Z,22.29
2023-07-17T19:38:11.679Z,22.15
2023-07-17T19:40:39.029Z,22.04
2023-07-17T19:43:06.497Z,22.01
2023-07-17T19:45:33.984Z,22.00
2023-07-17T19:48:01.455Z,21.99
2023-07-17T19:50:31.030Z,22.02
2023-07-17T19:52:58.337Z,22.02
2023-07-17T19:55:25.607Z,22.02
2023-07-17T19:57:53.213Z,22.00
2023-07-17T20:00:20.615Z,21.84
2023-07-17T20:02:48.723Z,21.66
2023-07-17T20:05:16.565Z,21.58
2023-07-17T20:07:45.212Z,21.52
2023-07-17T20:10:12.545Z,21.42
2023-07-17T20:12:39.829Z,21.34
2023-07-17T20:15:08.322Z,21.31
2023-07-17T20:17:37.173Z,21.38
2023-07-17T20:20:06.395Z,21.47
2023-07-17T20:22:39.296Z,21.58
2023-07-17T20:25:09.785Z,21.65
2023-07-17T20:27:41.013Z,21.71
2023-07-17T20:30:09.613Z,21.76
2023-07-17T20:32:37.109Z,21.82
2023-07-17T20:35:20.752Z,21.86
2023-07-17T20:37:52.219Z,21.88
2023-07-17T20:40:21.893Z,21.87
2023-07-17T20:42:49.792Z,21.92
2023-07-17T20:45:18.416Z,21.96
2023-07-17T20:47:46.391Z,21.96
2023-07-17T20:50:14.348Z,21.99
2023-07-17T20:52:45.583Z,21.99
2023-07-17T20:55:17.374Z,21.98
2023-07-17T20:57:46.503Z,22.00
2023-07-17T21:00:14.702Z,21.98
2023-07-17T21:02:42.536Z,21.97
2023-07-17T21:05:10.196Z,21.96
2023-07-17T21:07:38.420Z,21.93
2023-07-17T21:10:06.399Z,21.88
2023-07-17T21:12:35.473Z,21.88
2023-07-17T21:15:04.941Z,21.85
2023-07-17T21:17:33.181Z,21.84
2023-07-17T21:20:00.528Z,21.81
2023-07-17T21:22:27.860Z,21.79
2023-07-17T21:24:55.321Z,21.76
2023-07-17T21:27:22.954Z,21.78
2023-07-17T21:29:50.417Z,21.75
2023-07-17T21:32:19.526Z,21.71
2023-07-17T21:34:46.799Z,21.68
2023-07-17T21:37:14.161Z,21.66
2023-07-17T21:39:44.671Z,21.62
2023-07-17T21:42:12.357Z,21.59
2023-07-17T21:44:39.994Z,21.56
2023-07-17T21:47:07.969Z,21.57
2023-07-17T21:49:36.621Z,21.56
2023-07-17T21:52:04.484Z,21.53
2023-07-17T21:54:32.075Z,21.53
2023-07-17T21:56:59.557Z,21.52
2023-07-17T21:59:26.878Z,21.52
2023-07-17T22:01:54.846Z,21.50
2023-07-17T22:04:22.107Z,21.47
2023-07-17T22:06:50.772Z,21.43
2023-07-17T22:09:18.510Z,21.45
2023-07-17T22:11:46.503Z,21.44
2023-07-17T22:14:14.240Z,21.45
2023-07-17T22:16:41.648Z,21.49
2023-07-17T22:19:09.143Z,21.51
2023-07-17T22:21:36.972Z,21.50
2023-07-17T22:24:06.799Z,21.47
2023-07-17T22:26:34.143Z,21.43
2023-07-17T22:29:01.718Z,21.39
2023-07-17T22:31:29.350Z,21.34
2023-07-17T22:33:57.404Z,21.29
2023-07-17T22:36:25.151Z,21.22
2023-07-17T22:38:52.738Z,21.18
2023-07-17T22:41:21.659Z,21.17
2023-07-17T22:43:49.019Z,21.15
2023-07-17T22:46:16.706Z,21.14
2023-07-17T22:48:44.099Z,21.13
2023-07-17T22:51:11.368Z,21.11
2023-07-17T22:53:38.617Z,21.09
2023-07-17T22:56:05.900Z,21.01
2023-07-17T22:58:37.409Z,21.01
2023-07-17T23:01:04.627Z,21.02
2023-07-17T23:03:33.517Z,20.96
2023-07-17T23:06:01.088Z,20.90
2023-07-17T23:08:28.444Z,20.81
2023-07-17T23:10:55.989Z,20.82
2023-07-17T23:13:23.258Z,20.82
2023-07-17T23:15:52.467Z,20.82
2023-07-17T23:18:20.876Z,20.80
2023-07-17T23:20:48.183Z,20.77
2023-07-17T23:23:16.650Z,20.72
2023-07-17T23:25:45.475Z,20.66
2023-07-17T23:28:13.598Z,20.64
2023-07-17T23:30:41.414Z,20.65
2023-07-17T23:33:10.672Z,20.68
2023-07-17T23:35:39.500Z,20.67
2023-07-17T23:38:06.968Z,20.66
2023-07-17T23:40:34.229Z,20.62
2023-07-17T23:43:04.004Z,20.61
2023-07-17T23:45:32.416Z,20.65
2023-07-17T23:48:01.032Z,20.73
2023-07-17T23:50:30.254Z,20.78
2023-07-17T23:52:57.540Z,20.82
2023-07-17T23:55:24.986Z,20.87
2023-07-17T23:57:52.649Z,20.92
